9G6 weather

Pine Hill Airport
Albion, New York, United States

Public forecast

Using degrees Fahrenheit for public forecast. Weather courtesy of forecast.io.

METAR (pilot weather report)

Closest report is Buffalo Niagara International Airport, 24.5 nm (45.3 km) SW. Retrieved 2019/06/17 09:54 UTC (45 minutes ago):

KBUF 170954Z 00000KT 10SM FEW110 12/11 A2997 RMK AO2 SLP150 T01220106

TAF (pilot weather forecast)

Closest forecast is Buffalo Niagara International Airport, 24.5 nm (45.3 km) SW. Retrieved 2019/06/17 06:27 UTC (4 hours ago):

TAF KBUF 170525Z 1706/1806 00000KT P6SM SKC TEMPO 1708/1711 4SM BR FM171200 12005KT P6SM BKN090 FM171600 07007KT P6SM BKN090